PWSweather.com
Personal Weather Stations
Station Observations
HELOTES
Helotes Park Terrace, Helotes, TX 78023

Helotes Park TerraceHelotes, TX 78023

Lat: 29.57, Lon: -98.68

Elevation: 1060

Station Type: Ambient Weather WS-1090

Latest ConditionsUpdated 11:56:21 AM CDT Saturday, Apr 19, 2014
Currently Today's Max Today's Min Today's Average
Temperature 72.0°F22.2°C 72.0°F22.2°C 53.6°F12.0°C 59.9°F15.5°C
Dew Point 59.6°F15.3°C 60.1°F15.6°C 48.2°F9.0°C 53.1°F11.7°C
Winds 5.8 mph E9.3 kmh E 6.0 mph SE9.7 kmh SE - 1.7 mph 2.7 kmh
Wind Gusts 7.6 mph12.2 kmh 10.1 mph16.3 kmh - -
Humidity 65% 87% 65% 78%
Pressure 30.07 in1018.3 mb 30.08 in1018.6 mb 30.02 in1016.6 mb -
Hour Temp Dew Point Humidity Winds Wind Gusts Pressure Precip Precip Rate Daily Precip Total
11:56 AM 72.0°F22.2°C 59.6°F15.3°C 65% 5.8 mph E9.3 kmh E 7.6 mph12.2 kmh 30.07 in1018.3 mb 0.00 in0.0 mm 0.00 in/hr0.0 mm/hr 0.00 in0.0 mm
11:51 AM 71.8°F22.1°C 59.9°F15.5°C 66% 3.8 mph SE6.1 kmh SE 10.1 mph16.3 kmh 30.07 in1018.3 mb 0.00 in0.0 mm 0.00 in/hr0.0 mm/hr 0.00 in0.0 mm
11:46 AM 71.6°F22.0°C 59.7°F15.4°C 66% 5.9 mph SE9.5 kmh SE 10.1 mph16.3 kmh 30.08 in1018.6 mb 0.00 in0.0 mm 0.00 in/hr0.0 mm/hr 0.00 in0.0 mm
11:41 AM 71.6°F22.0°C 59.7°F15.4°C 66% 4.8 mph SE7.7 kmh SE 10.1 mph16.3 kmh 30.08 in1018.6 mb 0.00 in0.0 mm 0.00 in/hr0.0 mm/hr 0.00 in0.0 mm
11:36 AM 71.5°F21.9°C 59.5°F15.3°C 66% 5.8 mph SE9.3 kmh SE 6.9 mph11.1 kmh 30.08 in1018.6 mb 0.00 in0.0 mm 0.00 in/hr0.0 mm/hr 0.00 in0.0 mm
11:31 AM 71.3°F21.8°C 59.8°F15.4°C 67% 4.7 mph SE7.6 kmh SE 6.7 mph10.8 kmh 30.08 in1018.6 mb 0.00 in0.0 mm 0.00 in/hr0.0 mm/hr 0.00 in0.0 mm
11:26 AM 71.1°F21.7°C 59.6°F15.3°C 67% 4.8 mph ESE7.7 kmh ESE 6.7 mph10.8 kmh 30.08 in1018.6 mb 0.00 in0.0 mm 0.00 in/hr0.0 mm/hr 0.00 in0.0 mm
11:21 AM 70.9°F21.6°C 59.9°F15.5°C 68% 4.6 mph SE7.4 kmh SE 8.1 mph13.0 kmh 30.08 in1018.6 mb 0.00 in0.0 mm 0.00 in/hr0.0 mm/hr 0.00 in0.0 mm
11:16 AM 70.7°F21.5°C 59.7°F15.4°C 68% 5.8 mph S9.3 kmh S 8.1 mph13.0 kmh 30.08 in1018.6 mb 0.00 in0.0 mm 0.00 in/hr0.0 mm/hr 0.00 in0.0 mm
11:11 AM 70.6°F21.4°C 59.9°F15.5°C 69% 4.3 mph SSE6.9 kmh SSE 6.9 mph11.1 kmh 30.08 in1018.6 mb 0.00 in0.0 mm 0.00 in/hr0.0 mm/hr 0.00 in0.0 mm
11:06 AM 70.4°F21.3°C 59.7°F15.4°C 69% 4.4 mph SSE7.1 kmh SSE 6.7 mph10.8 kmh 30.08 in1018.6 mb 0.00 in0.0 mm 0.00 in/hr0.0 mm/hr 0.00 in0.0 mm
11:01 AM 70.0°F21.1°C 60.1°F15.6°C 71% 4.4 mph SSE7.1 kmh SSE 6.7 mph10.8 kmh 30.08 in1018.6 mb 0.00 in0.0 mm 0.00 in/hr0.0 mm/hr 0.00 in0.0 mm
10:56 AM 69.5°F20.8°C 60.0°F15.6°C 72% 3.3 mph S5.3 kmh S 6.3 mph10.1 kmh 30.08 in1018.6 mb 0.00 in0.0 mm 0.00 in/hr0.0 mm/hr 0.00 in0.0 mm
10:51 AM 69.1°F20.6°C 60.0°F15.6°C 73% 4.0 mph SE6.4 kmh SE 7.4 mph11.9 kmh 30.08 in1018.6 mb 0.00 in0.0 mm 0.00 in/hr0.0 mm/hr 0.00 in0.0 mm
10:46 AM 68.6°F20.3°C 59.9°F15.5°C 74% 4.2 mph S6.8 kmh S 7.6 mph12.2 kmh 30.08 in1018.6 mb 0.00 in0.0 mm 0.00 in/hr0.0 mm/hr 0.00 in0.0 mm
10:41 AM 67.9°F19.9°C 59.3°F15.2°C 74% 4.2 mph SE6.8 kmh SE 8.3 mph13.4 kmh 30.08 in1018.6 mb 0.00 in0.0 mm 0.00 in/hr0.0 mm/hr 0.00 in0.0 mm
10:36 AM 67.3°F19.6°C 59.5°F15.3°C 76% 6.0 mph SE9.7 kmh SE 8.3 mph13.4 kmh 30.08 in1018.6 mb 0.00 in0.0 mm 0.00 in/hr0.0 mm/hr 0.00 in0.0 mm
10:31 AM 66.8°F19.3°C 59.3°F15.2°C 77% 2.6 mph ESE4.2 kmh ESE 4.0 mph6.4 kmh 30.08 in1018.6 mb 0.00 in0.0 mm 0.00 in/hr0.0 mm/hr 0.00 in0.0 mm
10:26 AM 66.1°F18.9°C 59.1°F15.1°C 78% 0.9 mph SSE1.4 kmh SSE 5.8 mph9.3 kmh 30.08 in1018.6 mb 0.00 in0.0 mm 0.00 in/hr0.0 mm/hr 0.00 in0.0 mm
10:21 AM 65.9°F18.8°C 58.9°F14.9°C 78% 2.6 mph SE4.2 kmh SE 5.8 mph9.3 kmh 30.08 in1018.6 mb 0.00 in0.0 mm 0.00 in/hr0.0 mm/hr 0.00 in0.0 mm
10:16 AM 65.7°F18.7°C 59.1°F15.1°C 79% 2.6 mph SSE4.2 kmh SSE 4.9 mph7.9 kmh 30.08 in1018.6 mb 0.00 in0.0 mm 0.00 in/hr0.0 mm/hr 0.00 in0.0 mm
10:11 AM 65.5°F18.6°C 59.2°F15.1°C 80% 3.3 mph S5.3 kmh S 5.1 mph8.2 kmh 30.08 in1018.6 mb 0.00 in0.0 mm 0.00 in/hr0.0 mm/hr 0.00 in0.0 mm
10:06 AM 65.2°F18.4°C 58.9°F14.9°C 80% 2.1 mph S3.4 kmh S 6.5 mph10.5 kmh 30.07 in1018.3 mb 0.00 in0.0 mm 0.00 in/hr0.0 mm/hr 0.00 in0.0 mm
10:01 AM 64.8°F18.2°C 58.9°F14.9°C 81% 5.2 mph SSE8.4 kmh SSE 6.5 mph10.5 kmh 30.08 in1018.6 mb 0.00 in0.0 mm 0.00 in/hr0.0 mm/hr 0.00 in0.0 mm
09:56 AM 64.4°F18.0°C 58.9°F14.9°C 82% 1.4 mph ESE2.3 kmh ESE 3.6 mph5.8 kmh 30.08 in1018.6 mb 0.00 in0.0 mm 0.00 in/hr0.0 mm/hr 0.00 in0.0 mm
09:51 AM 64.1°F17.8°C 58.2°F14.6°C 81% 1.8 mph SSW2.9 kmh SSW 4.7 mph7.6 kmh 30.08 in1018.6 mb 0.00 in0.0 mm 0.00 in/hr0.0 mm/hr 0.00 in0.0 mm
09:46 AM 63.7°F17.6°C 58.2°F14.6°C 82% 2.5 mph SE4.0 kmh SE 4.7 mph7.6 kmh 30.08 in1018.6 mb 0.00 in0.0 mm 0.00 in/hr0.0 mm/hr 0.00 in0.0 mm
09:41 AM 63.2°F17.3°C 57.9°F14.4°C 83% 1.4 mph SW2.3 kmh SW 4.3 mph6.9 kmh 30.07 in1018.3 mb 0.00 in0.0 mm 0.00 in/hr0.0 mm/hr 0.00 in0.0 mm
09:36 AM 62.8°F17.1°C 57.5°F14.2°C 83% 2.3 mph SE3.7 kmh SE 4.3 mph6.9 kmh 30.08 in1018.6 mb 0.00 in0.0 mm 0.00 in/hr0.0 mm/hr 0.00 in0.0 mm
09:31 AM 62.3°F16.8°C 57.3°F14.1°C 84% 2.3 mph SE3.7 kmh SE 4.0 mph6.4 kmh 30.08 in1018.6 mb 0.00 in0.0 mm 0.00 in/hr0.0 mm/hr 0.00 in0.0 mm
09:26 AM 61.9°F16.6°C 57.3°F14.1°C 85% 2.9 mph ESE4.7 kmh ESE 4.0 mph6.4 kmh 30.08 in1018.6 mb 0.00 in0.0 mm 0.00 in/hr0.0 mm/hr 0.00 in0.0 mm
09:21 AM 61.6°F16.4°C 57.1°F13.9°C 85% 1.6 mph SE2.6 kmh SE 2.5 mph4.0 kmh 30.07 in1018.3 mb 0.00 in0.0 mm 0.00 in/hr0.0 mm/hr 0.00 in0.0 mm
09:16 AM 61.0°F16.1°C 56.9°F13.8°C 86% 1.4 mph SE2.3 kmh SE 2.5 mph4.0 kmh 30.07 in1018.3 mb 0.00 in0.0 mm 0.00 in/hr0.0 mm/hr 0.00 in0.0 mm
09:11 AM 60.5°F15.8°C 56.4°F13.6°C 86% 1.6 mph S2.6 kmh S 4.0 mph6.4 kmh 30.08 in1018.6 mb 0.00 in0.0 mm 0.00 in/hr0.0 mm/hr 0.00 in0.0 mm
09:06 AM 60.1°F15.6°C 56.0°F13.3°C 86% 2.0 mph W3.2 kmh W 4.0 mph6.4 kmh 30.07 in1018.3 mb 0.00 in0.0 mm 0.00 in/hr0.0 mm/hr 0.00 in0.0 mm
09:01 AM 59.8°F15.4°C 55.9°F13.3°C 87% 1.2 mph WSW1.9 kmh WSW 3.4 mph5.5 kmh 30.07 in1018.3 mb 0.00 in0.0 mm 0.00 in/hr0.0 mm/hr 0.00 in0.0 mm
08:56 AM 59.4°F15.2°C 55.5°F13.1°C 87% 1.1 mph WSW1.8 kmh WSW 3.4 mph5.5 kmh 30.07 in1018.3 mb 0.00 in0.0 mm 0.00 in/hr0.0 mm/hr 0.00 in0.0 mm
08:51 AM 58.7°F14.8°C 54.8°F12.7°C 87% 1.2 mph SE1.9 kmh SE 3.1 mph5.0 kmh 30.08 in1018.6 mb 0.00 in0.0 mm 0.00 in/hr0.0 mm/hr 0.00 in0.0 mm
08:46 AM 58.3°F14.6°C 54.5°F12.5°C 87% 0.4 mph SW0.6 kmh SW 2.5 mph4.0 kmh 30.07 in1018.3 mb 0.00 in0.0 mm 0.00 in/hr0.0 mm/hr 0.00 in0.0 mm
08:41 AM 57.6°F14.2°C 53.7°F12.1°C 87% 2.2 mph SW3.5 kmh SW 2.5 mph4.0 kmh 30.07 in1018.3 mb 0.00 in0.0 mm 0.00 in/hr0.0 mm/hr 0.00 in0.0 mm
08:36 AM 57.1°F13.9°C 52.9°F11.6°C 86% 0.9 mph W1.4 kmh W 1.3 mph2.1 kmh 30.07 in1018.3 mb 0.00 in0.0 mm 0.00 in/hr0.0 mm/hr 0.00 in0.0 mm
08:31 AM 56.5°F13.6°C 52.0°F11.1°C 85% 0.3 mph NW0.5 kmh NW 1.3 mph2.1 kmh 30.07 in1018.3 mb 0.00 in0.0 mm 0.00 in/hr0.0 mm/hr 0.00 in0.0 mm
08:26 AM 56.2°F13.4°C 51.7°F10.9°C 85% 0.4 mph NW0.6 kmh NW 2.0 mph3.2 kmh 30.07 in1018.3 mb 0.00 in0.0 mm 0.00 in/hr0.0 mm/hr 0.00 in0.0 mm
08:21 AM 55.6°F13.1°C 50.8°F10.4°C 84% 1.0 mph NW1.6 kmh NW 2.0 mph3.2 kmh 30.07 in1018.3 mb 0.00 in0.0 mm 0.00 in/hr0.0 mm/hr 0.00 in0.0 mm
08:16 AM 55.3°F12.9°C 50.5°F10.3°C 84% 1.3 mph NW2.1 kmh NW 2.5 mph4.0 kmh 30.07 in1018.3 mb 0.00 in0.0 mm 0.00 in/hr0.0 mm/hr 0.00 in0.0 mm
08:11 AM 55.1°F12.8°C 50.3°F10.2°C 84% 1.5 mph NW2.4 kmh NW 2.5 mph4.0 kmh 30.07 in1018.3 mb 0.00 in0.0 mm 0.00 in/hr0.0 mm/hr 0.00 in0.0 mm
08:06 AM 54.7°F12.6°C 50.0°F10.0°C 84% 2.0 mph NW3.2 kmh NW 2.5 mph4.0 kmh 30.07 in1018.3 mb 0.00 in0.0 mm 0.00 in/hr0.0 mm/hr 0.00 in0.0 mm
08:01 AM 54.5°F12.5°C 49.8°F9.9°C 84% 1.7 mph NW2.7 kmh NW 2.0 mph3.2 kmh 30.07 in1018.3 mb 0.00 in0.0 mm 0.00 in/hr0.0 mm/hr 0.00 in0.0 mm
07:56 AM 54.4°F12.4°C 49.3°F9.6°C 83% 1.8 mph NW2.9 kmh NW 2.0 mph3.2 kmh 30.07 in1018.3 mb 0.00 in0.0 mm 0.00 in/hr0.0 mm/hr 0.00 in0.0 mm
07:51 AM 54.2°F12.3°C 49.2°F9.6°C 83% 1.1 mph NW1.8 kmh NW 1.6 mph2.6 kmh 30.07 in1018.3 mb 0.00 in0.0 mm 0.00 in/hr0.0 mm/hr 0.00 in0.0 mm
07:46 AM 54.0°F12.2°C 49.0°F9.4°C 83% 1.0 mph NW1.6 kmh NW 1.3 mph2.1 kmh 30.07 in1018.3 mb 0.00 in0.0 mm 0.00 in/hr0.0 mm/hr 0.00 in0.0 mm
07:41 AM 54.0°F12.2°C 49.0°F9.4°C 83% 0.9 mph NW1.4 kmh NW 1.6 mph2.6 kmh 30.07 in1018.3 mb 0.00 in0.0 mm 0.00 in/hr0.0 mm/hr 0.00 in0.0 mm
07:36 AM 53.8°F12.1°C 48.8°F9.3°C 83% 1.0 mph NW1.6 kmh NW 1.6 mph2.6 kmh 30.07 in1018.3 mb 0.00 in0.0 mm 0.00 in/hr0.0 mm/hr 0.00 in0.0 mm
07:31 AM 53.8°F12.1°C 48.5°F9.2°C 82% 1.1 mph NW1.8 kmh NW 1.1 mph1.8 kmh 30.07 in1018.3 mb 0.00 in0.0 mm 0.00 in/hr0.0 mm/hr 0.00 in0.0 mm
07:26 AM 53.6°F12.0°C 48.3°F9.1°C 82% 0.7 mph NW1.1 kmh NW 1.1 mph1.8 kmh 30.06 in1017.9 mb 0.00 in0.0 mm 0.00 in/hr0.0 mm/hr 0.00 in0.0 mm
07:21 AM 53.6°F12.0°C 48.3°F9.1°C 82% 1.0 mph NW1.6 kmh NW 1.1 mph1.8 kmh 30.06 in1017.9 mb 0.00 in0.0 mm 0.00 in/hr0.0 mm/hr 0.00 in0.0 mm
07:16 AM 53.6°F12.0°C 48.3°F9.1°C 82% Calm Calm 0.7 mph1.1 kmh 30.06 in1017.9 mb 0.00 in0.0 mm 0.00 in/hr0.0 mm/hr 0.00 in0.0 mm
07:11 AM 53.6°F12.0°C 48.3°F9.1°C 82% 0.6 mph NW1.0 kmh NW 1.3 mph2.1 kmh 30.05 in1017.6 mb 0.00 in0.0 mm 0.00 in/hr0.0 mm/hr 0.00 in0.0 mm
07:06 AM 53.8°F12.1°C 48.5°F9.2°C 82% 1.1 mph NW1.8 kmh NW 1.3 mph2.1 kmh 30.05 in1017.6 mb 0.00 in0.0 mm 0.00 in/hr0.0 mm/hr 0.00 in0.0 mm
07:01 AM 53.8°F12.1°C 48.5°F9.2°C 82% 1.1 mph NW1.8 kmh NW 1.3 mph2.1 kmh 30.05 in1017.6 mb 0.00 in0.0 mm 0.00 in/hr0.0 mm/hr 0.00 in0.0 mm
06:56 AM 53.8°F12.1°C 48.5°F9.2°C 82% 0.4 mph NW0.6 kmh NW 1.1 mph1.8 kmh 30.04 in1017.3 mb 0.00 in0.0 mm 0.00 in/hr0.0 mm/hr 0.00 in0.0 mm
06:51 AM 53.8°F12.1°C 48.5°F9.2°C 82% 1.0 mph NW1.6 kmh NW 1.8 mph2.9 kmh 30.04 in1017.3 mb 0.00 in0.0 mm 0.00 in/hr0.0 mm/hr 0.00 in0.0 mm
06:46 AM 53.8°F12.1°C 48.5°F9.2°C 82% 0.4 mph NW0.6 kmh NW 1.8 mph2.9 kmh 30.04 in1017.3 mb 0.00 in0.0 mm 0.00 in/hr0.0 mm/hr 0.00 in0.0 mm
06:41 AM 53.8°F12.1°C 48.2°F9.0°C 81% 1.4 mph NW2.3 kmh NW 2.0 mph3.2 kmh 30.04 in1017.3 mb 0.00 in0.0 mm 0.00 in/hr0.0 mm/hr 0.00 in0.0 mm
06:36 AM 54.0°F12.2°C 48.3°F9.1°C 81% 1.5 mph NW2.4 kmh NW 2.0 mph3.2 kmh 30.04 in1017.3 mb 0.00 in0.0 mm 0.00 in/hr0.0 mm/hr 0.00 in0.0 mm
06:31 AM 54.0°F12.2°C 48.3°F9.1°C 81% 1.6 mph NW2.6 kmh NW 2.2 mph3.5 kmh 30.03 in1016.9 mb 0.00 in0.0 mm 0.00 in/hr0.0 mm/hr 0.00 in0.0 mm
06:26 AM 54.2°F12.3°C 48.5°F9.2°C 81% 1.7 mph NW2.7 kmh NW 2.2 mph3.5 kmh 30.03 in1016.9 mb 0.00 in0.0 mm 0.00 in/hr0.0 mm/hr 0.00 in0.0 mm
06:21 AM 54.4°F12.4°C 48.7°F9.3°C 81% 2.0 mph NW3.2 kmh NW 2.7 mph4.3 kmh 30.03 in1016.9 mb 0.00 in0.0 mm 0.00 in/hr0.0 mm/hr 0.00 in0.0 mm
06:16 AM 54.4°F12.4°C 48.3°F9.1°C 80% 2.2 mph NW3.5 kmh NW 3.1 mph5.0 kmh 30.03 in1016.9 mb 0.00 in0.0 mm 0.00 in/hr0.0 mm/hr 0.00 in0.0 mm
06:11 AM 54.5°F12.5°C 48.5°F9.2°C 80% 2.9 mph NW4.7 kmh NW 3.1 mph5.0 kmh 30.02 in1016.6 mb 0.00 in0.0 mm 0.00 in/hr0.0 mm/hr 0.00 in0.0 mm
06:06 AM 54.7°F12.6°C 48.7°F9.3°C 80% 2.3 mph NNW3.7 kmh NNW 2.9 mph4.7 kmh 30.02 in1016.6 mb 0.00 in0.0 mm 0.00 in/hr0.0 mm/hr 0.00 in0.0 mm
06:01 AM 54.9°F12.7°C 48.9°F9.4°C 80% 1.9 mph NW3.1 kmh NW 2.5 mph4.0 kmh 30.02 in1016.6 mb 0.00 in0.0 mm 0.00 in/hr0.0 mm/hr 0.00 in0.0 mm
05:56 AM 55.1°F12.8°C 49.0°F9.4°C 80% 1.4 mph NW2.3 kmh NW 1.8 mph2.9 kmh 30.02 in1016.6 mb 0.00 in0.0 mm 0.00 in/hr0.0 mm/hr 0.00 in0.0 mm
05:51 AM 55.3°F12.9°C 49.1°F9.5°C 80% 1.4 mph NW2.3 kmh NW 1.8 mph2.9 kmh 30.02 in1016.6 mb 0.00 in0.0 mm 0.00 in/hr0.0 mm/hr 0.00 in0.0 mm
05:46 AM 55.4°F13.0°C 49.3°F9.6°C 80% 1.6 mph NW2.6 kmh NW 2.2 mph3.5 kmh 30.02 in1016.6 mb 0.00 in0.0 mm 0.00 in/hr0.0 mm/hr 0.00 in0.0 mm
05:41 AM 55.4°F13.0°C 49.3°F9.6°C 80% 1.7 mph NW2.7 kmh NW 2.2 mph3.5 kmh 30.02 in1016.6 mb 0.00 in0.0 mm 0.00 in/hr0.0 mm/hr 0.00 in0.0 mm
05:36 AM 55.6°F13.1°C 49.9°F9.9°C 81% 1.8 mph NW2.9 kmh NW 2.0 mph3.2 kmh 30.02 in1016.6 mb 0.00 in0.0 mm 0.00 in/hr0.0 mm/hr 0.00 in0.0 mm
05:31 AM 55.6°F13.1°C 49.9°F9.9°C 81% 1.6 mph NW2.6 kmh NW 1.8 mph2.9 kmh 30.02 in1016.6 mb 0.00 in0.0 mm 0.00 in/hr0.0 mm/hr 0.00 in0.0 mm
05:26 AM 55.8°F13.2°C 50.1°F10.1°C 81% 1.6 mph NW2.6 kmh NW 1.8 mph2.9 kmh 30.02 in1016.6 mb 0.00 in0.0 mm 0.00 in/hr0.0 mm/hr 0.00 in0.0 mm
05:21 AM 55.8°F13.2°C 50.1°F10.1°C 81% 1.3 mph NNW2.1 kmh NNW 1.6 mph2.6 kmh 30.02 in1016.6 mb 0.00 in0.0 mm 0.00 in/hr0.0 mm/hr 0.00 in0.0 mm
05:16 AM 55.8°F13.2°C 50.1°F10.1°C 81% 0.9 mph NNW1.4 kmh NNW 1.6 mph2.6 kmh 30.02 in1016.6 mb 0.00 in0.0 mm 0.00 in/hr0.0 mm/hr 0.00 in0.0 mm
05:11 AM 55.8°F13.2°C 50.1°F10.1°C 81% 1.0 mph NNW1.6 kmh NNW 2.0 mph3.2 kmh 30.02 in1016.6 mb 0.00 in0.0 mm 0.00 in/hr0.0 mm/hr 0.00 in0.0 mm
05:06 AM 55.8°F13.2°C 50.1°F10.1°C 81% 1.4 mph NW2.3 kmh NW 2.2 mph3.5 kmh 30.02 in1016.6 mb 0.00 in0.0 mm 0.00 in/hr0.0 mm/hr 0.00 in0.0 mm
05:01 AM 56.0°F13.3°C 49.9°F9.9°C 80% 2.0 mph NW3.2 kmh NW 2.5 mph4.0 kmh 30.02 in1016.6 mb 0.00 in0.0 mm 0.00 in/hr0.0 mm/hr 0.00 in0.0 mm
04:56 AM 56.0°F13.3°C 49.9°F9.9°C 80% 1.6 mph NW2.6 kmh NW 2.5 mph4.0 kmh 30.02 in1016.6 mb 0.00 in0.0 mm 0.00 in/hr0.0 mm/hr 0.00 in0.0 mm
04:50 AM 56.2°F13.4°C 50.0°F10.0°C 80% 1.7 mph NW2.7 kmh NW 2.5 mph4.0 kmh 30.02 in1016.6 mb 0.00 in0.0 mm 0.00 in/hr0.0 mm/hr 0.00 in0.0 mm
04:46 AM 56.2°F13.4°C 50.0°F10.0°C 80% 1.8 mph NW2.9 kmh NW 2.0 mph3.2 kmh 30.02 in1016.6 mb 0.00 in0.0 mm 0.00 in/hr0.0 mm/hr 0.00 in0.0 mm
04:41 AM 56.3°F13.5°C 50.2°F10.1°C 80% 1.5 mph NW2.4 kmh NW 1.8 mph2.9 kmh 30.02 in1016.6 mb 0.00 in0.0 mm 0.00 in/hr0.0 mm/hr 0.00 in0.0 mm
04:36 AM 56.5°F13.6°C 50.4°F10.2°C 80% 1.3 mph NW2.1 kmh NW 1.8 mph2.9 kmh 30.02 in1016.6 mb 0.00 in0.0 mm 0.00 in/hr0.0 mm/hr 0.00 in0.0 mm
04:30 AM 56.5°F13.6°C 50.4°F10.2°C 80% 1.7 mph NNW2.7 kmh NNW 1.8 mph2.9 kmh 30.02 in1016.6 mb 0.00 in0.0 mm 0.00 in/hr0.0 mm/hr 0.00 in0.0 mm
04:25 AM 56.7°F13.7°C 50.6°F10.3°C 80% 1.3 mph NNW2.1 kmh NNW 1.8 mph2.9 kmh 30.02 in1016.6 mb 0.00 in0.0 mm 0.00 in/hr0.0 mm/hr 0.00 in0.0 mm
04:21 AM 56.7°F13.7°C 50.2°F10.1°C 79% 1.5 mph NNW2.4 kmh NNW 1.6 mph2.6 kmh 30.02 in1016.6 mb 0.00 in0.0 mm 0.00 in/hr0.0 mm/hr 0.00 in0.0 mm
04:16 AM 56.9°F13.8°C 50.4°F10.2°C 79% Calm Calm 1.1 mph1.8 kmh 30.02 in1016.6 mb 0.00 in0.0 mm 0.00 in/hr0.0 mm/hr 0.00 in0.0 mm
04:10 AM 57.1°F13.9°C 50.6°F10.3°C 79% 0.5 mph ENE0.8 kmh ENE 1.6 mph2.6 kmh 30.02 in1016.6 mb 0.00 in0.0 mm 0.00 in/hr0.0 mm/hr 0.00 in0.0 mm
04:05 AM 57.1°F13.9°C 50.6°F10.3°C 79% 0.6 mph ENE1.0 kmh ENE 1.6 mph2.6 kmh 30.02 in1016.6 mb 0.00 in0.0 mm 0.00 in/hr0.0 mm/hr 0.00 in0.0 mm
04:01 AM 57.2°F14.0°C 50.8°F10.4°C 79% 1.1 mph ENE1.8 kmh ENE 1.6 mph2.6 kmh 30.02 in1016.6 mb 0.00 in0.0 mm 0.00 in/hr0.0 mm/hr 0.00 in0.0 mm
03:56 AM 57.2°F14.0°C 50.8°F10.4°C 79% 1.1 mph NNW1.8 kmh NNW 1.1 mph1.8 kmh 30.02 in1016.6 mb 0.00 in0.0 mm 0.00 in/hr0.0 mm/hr 0.00 in0.0 mm
03:50 AM 57.4°F14.1°C 50.9°F10.5°C 79% 0.7 mph NW1.1 kmh NW 1.8 mph2.9 kmh 30.03 in1016.9 mb 0.00 in0.0 mm 0.00 in/hr0.0 mm/hr 0.00 in0.0 mm
03:45 AM 57.6°F14.2°C 51.1°F10.6°C 79% 1.6 mph NW2.6 kmh NW 2.7 mph4.3 kmh 30.03 in1016.9 mb 0.00 in0.0 mm 0.00 in/hr0.0 mm/hr 0.00 in0.0 mm
03:41 AM 58.0°F14.4°C 51.1°F10.6°C 78% 1.3 mph NNW2.1 kmh NNW 3.1 mph5.0 kmh 30.03 in1016.9 mb 0.00 in0.0 mm 0.00 in/hr0.0 mm/hr 0.00 in0.0 mm
03:35 AM 58.0°F14.4°C 51.1°F10.6°C 78% 2.7 mph NNW4.3 kmh NNW 3.1 mph5.0 kmh 30.03 in1016.9 mb 0.00 in0.0 mm 0.00 in/hr0.0 mm/hr 0.00 in0.0 mm
03:30 AM 58.1°F14.5°C 51.3°F10.7°C 78% 1.8 mph NNW2.9 kmh NNW 1.8 mph2.9 kmh 30.03 in1016.9 mb 0.00 in0.0 mm 0.00 in/hr0.0 mm/hr 0.00 in0.0 mm
03:25 AM 58.3°F14.6°C 51.5°F10.8°C 78% 1.1 mph NNW1.8 kmh NNW 1.8 mph2.9 kmh 30.03 in1016.9 mb 0.00 in0.0 mm 0.00 in/hr0.0 mm/hr 0.00 in0.0 mm
03:20 AM 58.3°F14.6°C 51.5°F10.8°C 78% 1.5 mph NNW2.4 kmh NNW 1.8 mph2.9 kmh 30.03 in1016.9 mb 0.00 in0.0 mm 0.00 in/hr0.0 mm/hr 0.00 in0.0 mm
03:15 AM 58.7°F14.8°C 51.8°F11.0°C 78% 1.2 mph NNW1.9 kmh NNW 1.8 mph2.9 kmh 30.03 in1016.9 mb 0.00 in0.0 mm 0.00 in/hr0.0 mm/hr 0.00 in0.0 mm
03:10 AM 58.7°F14.8°C 51.5°F10.8°C 77% 1.5 mph NNW2.4 kmh NNW 1.8 mph2.9 kmh 30.03 in1016.9 mb 0.00 in0.0 mm 0.00 in/hr0.0 mm/hr 0.00 in0.0 mm
03:05 AM 58.9°F14.9°C 51.7°F10.9°C 77% 1.2 mph NNW1.9 kmh NNW 1.8 mph2.9 kmh 30.03 in1016.9 mb 0.00 in0.0 mm 0.00 in/hr0.0 mm/hr 0.00 in0.0 mm
03:00 AM 59.2°F15.1°C 52.0°F11.1°C 77% 1.8 mph NNW2.9 kmh NNW 1.8 mph2.9 kmh 30.03 in1016.9 mb 0.00 in0.0 mm 0.00 in/hr0.0 mm/hr 0.00 in0.0 mm
02:55 AM 59.2°F15.1°C 52.0°F11.1°C 77% 1.2 mph NNW1.9 kmh NNW 1.6 mph2.6 kmh 30.03 in1016.9 mb 0.00 in0.0 mm 0.00 in/hr0.0 mm/hr 0.00 in0.0 mm
02:50 AM 59.4°F15.2°C 52.2°F11.2°C 77% 1.2 mph NNW1.9 kmh NNW 1.6 mph2.6 kmh 30.03 in1016.9 mb 0.00 in0.0 mm 0.00 in/hr0.0 mm/hr 0.00 in0.0 mm
02:45 AM 59.6°F15.3°C 52.4°F11.3°C 77% 1.1 mph 1.8 kmh 1.3 mph2.1 kmh 30.04 in1017.3 mb 0.00 in0.0 mm 0.00 in/hr0.0 mm/hr 0.00 in0.0 mm
02:40 AM 59.8°F15.4°C 52.6°F11.4°C 77% 0.2 mph ENE0.3 kmh ENE 0.2 mph0.3 kmh 30.04 in1017.3 mb 0.00 in0.0 mm 0.00 in/hr0.0 mm/hr 0.00 in0.0 mm
02:35 AM 59.9°F15.5°C 52.7°F11.5°C 77% Calm Calm -- 30.04 in1017.3 mb 0.00 in0.0 mm 0.00 in/hr0.0 mm/hr 0.00 in0.0 mm
02:30 AM 60.1°F15.6°C 52.9°F11.6°C 77% Calm Calm 0.4 mph0.6 kmh 30.03 in1016.9 mb 0.00 in0.0 mm 0.00 in/hr0.0 mm/hr 0.00 in0.0 mm
02:25 AM 60.1°F15.6°C 52.9°F11.6°C 77% 0.4 mph ENE0.6 kmh ENE 0.4 mph0.6 kmh 30.04 in1017.3 mb 0.00 in0.0 mm 0.00 in/hr0.0 mm/hr 0.00 in0.0 mm
02:20 AM 60.1°F15.6°C 52.9°F11.6°C 77% Calm Calm 1.3 mph2.1 kmh 30.04 in1017.3 mb 0.00 in0.0 mm 0.00 in/hr0.0 mm/hr 0.00 in0.0 mm
02:15 AM 60.1°F15.6°C 52.9°F11.6°C 77% 0.4 mph ENE0.6 kmh ENE 1.8 mph2.9 kmh 30.04 in1017.3 mb 0.00 in0.0 mm 0.00 in/hr0.0 mm/hr 0.00 in0.0 mm
02:10 AM 60.3°F15.7°C 53.1°F11.7°C 77% 1.1 mph ENE1.8 kmh ENE 1.8 mph2.9 kmh 30.04 in1017.3 mb 0.00 in0.0 mm 0.00 in/hr0.0 mm/hr 0.00 in0.0 mm
02:05 AM 60.5°F15.8°C 52.9°F11.6°C 76% 1.5 mph ENE2.4 kmh ENE 1.8 mph2.9 kmh 30.05 in1017.6 mb 0.00 in0.0 mm 0.00 in/hr0.0 mm/hr 0.00 in0.0 mm
02:00 AM 60.5°F15.8°C 52.9°F11.6°C 76% 1.0 mph ENE1.6 kmh ENE 2.7 mph4.3 kmh 30.04 in1017.3 mb 0.00 in0.0 mm 0.00 in/hr0.0 mm/hr 0.00 in0.0 mm
01:55 AM 60.5°F15.8°C 52.9°F11.6°C 76% 1.0 mph ENE1.6 kmh ENE 2.7 mph4.3 kmh 30.05 in1017.6 mb 0.00 in0.0 mm 0.00 in/hr0.0 mm/hr 0.00 in0.0 mm
01:50 AM 60.7°F15.9°C 53.1°F11.7°C 76% 1.8 mph E2.9 kmh E 2.7 mph4.3 kmh 30.04 in1017.3 mb 0.00 in0.0 mm 0.00 in/hr0.0 mm/hr 0.00 in0.0 mm
01:45 AM 60.7°F15.9°C 53.1°F11.7°C 76% 0.6 mph ENE1.0 kmh ENE 1.3 mph2.1 kmh 30.04 in1017.3 mb 0.00 in0.0 mm 0.00 in/hr0.0 mm/hr 0.00 in0.0 mm
01:40 AM 60.8°F16.0°C 53.3°F11.8°C 76% 0.4 mph ENE0.6 kmh ENE 1.1 mph1.8 kmh 30.05 in1017.6 mb 0.00 in0.0 mm 0.00 in/hr0.0 mm/hr 0.00 in0.0 mm
01:35 AM 60.8°F16.0°C 52.9°F11.6°C 75% 0.9 mph ENE1.4 kmh ENE 1.1 mph1.8 kmh 30.05 in1017.6 mb 0.00 in0.0 mm 0.00 in/hr0.0 mm/hr 0.00 in0.0 mm
01:30 AM 61.0°F16.1°C 53.1°F11.7°C 75% 0.8 mph E1.3 kmh E 1.1 mph1.8 kmh 30.05 in1017.6 mb 0.00 in0.0 mm 0.00 in/hr0.0 mm/hr 0.00 in0.0 mm
01:25 AM 61.0°F16.1°C 53.1°F11.7°C 75% 0.3 mph ENE0.5 kmh ENE 1.1 mph1.8 kmh 30.05 in1017.6 mb 0.00 in0.0 mm 0.00 in/hr0.0 mm/hr 0.00 in0.0 mm
01:20 AM 61.2°F16.2°C 53.3°F11.8°C 75% 0.8 mph ENE1.3 kmh ENE 1.1 mph1.8 kmh 30.05 in1017.6 mb 0.00 in0.0 mm 0.00 in/hr0.0 mm/hr 0.00 in0.0 mm
01:15 AM 61.4°F16.3°C 53.0°F11.7°C 74% 0.2 mph E0.3 kmh E 0.2 mph0.3 kmh 30.05 in1017.6 mb 0.00 in0.0 mm 0.00 in/hr0.0 mm/hr 0.00 in0.0 mm
01:10 AM 61.6°F16.4°C 53.2°F11.8°C 74% Calm Calm -- 30.05 in1017.6 mb 0.00 in0.0 mm 0.00 in/hr0.0 mm/hr 0.00 in0.0 mm
01:05 AM 61.6°F16.4°C 53.2°F11.8°C 74% Calm Calm 0.2 mph0.3 kmh 30.05 in1017.6 mb 0.00 in0.0 mm 0.00 in/hr0.0 mm/hr 0.00 in0.0 mm
01:00 AM 61.7°F16.5°C 53.4°F11.9°C 74% Calm Calm 0.7 mph1.1 kmh 30.06 in1017.9 mb 0.00 in0.0 mm 0.00 in/hr0.0 mm/hr 0.00 in0.0 mm
12:55 AM 61.7°F16.5°C 53.4°F11.9°C 74% Calm Calm 1.8 mph2.9 kmh 30.05 in1017.6 mb 0.00 in0.0 mm 0.00 in/hr0.0 mm/hr 0.00 in0.0 mm
12:50 AM 61.9°F16.6°C 53.6°F12.0°C 74% 0.8 mph E1.3 kmh E 2.5 mph4.0 kmh 30.05 in1017.6 mb 0.00 in0.0 mm 0.00 in/hr0.0 mm/hr 0.00 in0.0 mm
12:45 AM 61.9°F16.6°C 53.6°F12.0°C 74% 1.0 mph E1.6 kmh E 2.5 mph4.0 kmh 30.05 in1017.6 mb 0.00 in0.0 mm 0.00 in/hr0.0 mm/hr 0.00 in0.0 mm
12:40 AM 62.1°F16.7°C 53.7°F12.1°C 74% 0.8 mph ENE1.3 kmh ENE 2.2 mph3.5 kmh 30.05 in1017.6 mb 0.00 in0.0 mm 0.00 in/hr0.0 mm/hr 0.00 in0.0 mm
12:35 AM 62.3°F16.8°C 53.8°F12.1°C 74% 1.6 mph ENE2.6 kmh ENE 2.2 mph3.5 kmh 30.05 in1017.6 mb 0.00 in0.0 mm 0.00 in/hr0.0 mm/hr 0.00 in0.0 mm
12:30 AM 62.3°F16.8°C 53.5°F11.9°C 73% 1.5 mph NE2.4 kmh NE 1.8 mph2.9 kmh 30.05 in1017.6 mb 0.00 in0.0 mm 0.00 in/hr0.0 mm/hr 0.00 in0.0 mm
12:25 AM 62.3°F16.8°C 53.5°F11.9°C 73% 1.3 mph ENE2.1 kmh ENE 2.5 mph4.0 kmh 30.05 in1017.6 mb 0.00 in0.0 mm 0.00 in/hr0.0 mm/hr 0.00 in0.0 mm
12:20 AM 62.3°F16.8°C 53.5°F11.9°C 73% 1.4 mph ENE2.3 kmh ENE 2.5 mph4.0 kmh 30.05 in1017.6 mb 0.00 in0.0 mm 0.00 in/hr0.0 mm/hr 0.00 in0.0 mm
12:15 AM 62.5°F16.9°C 53.6°F12.0°C 73% 1.6 mph NE2.6 kmh NE 2.2 mph3.5 kmh 30.05 in1017.6 mb 0.00 in0.0 mm 0.00 in/hr0.0 mm/hr 0.00 in0.0 mm
12:10 AM 62.6°F17.0°C 53.8°F12.1°C 73% 1.2 mph ENE1.9 kmh ENE 1.6 mph2.6 kmh 30.05 in1017.6 mb 0.00 in0.0 mm 0.00 in/hr0.0 mm/hr 0.00 in0.0 mm
12:05 AM 62.6°F17.0°C 53.8°F12.1°C 73% 1.1 mph ENE1.8 kmh ENE 1.6 mph2.6 kmh 30.06 in1017.9 mb 0.00 in0.0 mm 0.00 in/hr0.0 mm/hr 0.00 in0.0 mm
12:00 AM 62.6°F17.0°C 53.8°F12.1°C 73% 1.1 mph ENE1.8 kmh ENE 1.6 mph2.6 kmh 30.06 in1017.9 mb 0.00 in0.0 mm 0.00 in/hr0.0 mm/hr 0.00 in0.0 mm